createdAt,value
2019-05-09T00:00:03.940Z,68.17
2019-05-09T00:02:38.738Z,68.46
2019-05-09T00:05:10.789Z,68.70
2019-05-09T00:07:43.939Z,68.89
2019-05-09T00:10:16.272Z,69.31
2019-05-09T00:12:49.568Z,69.02
2019-05-09T00:15:24.155Z,68.65
2019-05-09T00:17:56.158Z,68.81
2019-05-09T00:20:33.214Z,68.40
2019-05-09T00:23:05.396Z,68.42
2019-05-09T00:25:37.871Z,68.25
2019-05-09T00:28:10.261Z,68.22
2019-05-09T00:30:59.217Z,68.80
2019-05-09T00:33:34.260Z,69.60
2019-05-09T00:36:07.140Z,69.83
2019-05-09T00:38:43.332Z,69.98
2019-05-09T00:41:15.267Z,70.01
2019-05-09T00:43:49.076Z,70.25
2019-05-09T00:46:29.003Z,70.29
2019-05-09T00:49:05.038Z,70.28
2019-05-09T00:51:37.152Z,70.12
2019-05-09T00:54:09.525Z,70.25
2019-05-09T00:56:43.615Z,69.74
2019-05-09T00:59:15.590Z,70.13
2019-05-09T01:01:48.065Z,70.31
2019-05-09T01:04:20.441Z,70.46
2019-05-09T01:06:54.018Z,71.08
2019-05-09T01:09:26.331Z,70.68
2019-05-09T01:11:58.604Z,71.34
2019-05-09T01:14:30.862Z,71.05
2019-05-09T01:17:04.260Z,71.41
2019-05-09T01:19:36.648Z,71.29
2019-05-09T01:22:09.115Z,71.05
2019-05-09T01:24:41.587Z,71.24
2019-05-09T01:27:14.270Z,71.50
2019-05-09T01:29:48.295Z,71.57
2019-05-09T01:32:38.276Z,71.32
2019-05-09T01:35:13.029Z,71.52
2019-05-09T01:37:44.545Z,71.83
2019-05-09T01:40:16.932Z,72.32
2019-05-09T01:42:49.193Z,72.48
2019-05-09T01:45:23.690Z,72.58
2019-05-09T01:47:55.494Z,72.82
2019-05-09T01:50:27.951Z,72.89
2019-05-09T01:53:00.325Z,72.91
2019-05-09T01:55:50.320Z,73.21
2019-05-09T01:58:23.257Z,73.26
2019-05-09T02:00:55.568Z,73.46
2019-05-09T02:03:28.045Z,73.85
2019-05-09T02:06:00.332Z,73.87
2019-05-09T02:08:34.615Z,74.05
2019-05-09T02:11:06.927Z,74.39
2019-05-09T02:13:40.100Z,74.41
2019-05-09T02:16:16.779Z,74.65
2019-05-09T02:18:59.387Z,74.59
2019-05-09T02:21:31.761Z,74.65
2019-05-09T02:24:05.050Z,74.64
2019-05-09T02:26:37.220Z,74.74
2019-05-09T02:29:09.717Z,74.93
2019-05-09T02:31:44.545Z,75.27
2019-05-09T02:34:16.110Z,75.98
2019-05-09T02:36:49.604Z,75.63
2019-05-09T02:39:21.981Z,75.68
2019-05-09T02:42:07.673Z,75.80
2019-05-09T02:44:29.082Z,75.67
2019-05-09T02:47:02.882Z,75.69
2019-05-09T02:49:35.370Z,75.64
2019-05-09T02:52:08.849Z,75.57
2019-05-09T02:54:41.129Z,75.65
2019-05-09T02:57:13.417Z,75.92
2019-05-09T02:59:49.985Z,75.93
2019-05-09T03:02:32.591Z,75.91
2019-05-09T03:05:08.568Z,75.98
2019-05-09T03:07:51.968Z,76.13
2019-05-09T03:10:24.249Z,76.32
2019-05-09T03:12:59.397Z,76.25
2019-05-09T03:15:30.334Z,76.40
2019-05-09T03:18:02.809Z,76.54
2019-05-09T03:20:42.662Z,76.55
2019-05-09T03:23:14.915Z,76.63
2019-05-09T03:25:48.414Z,76.35
2019-05-09T03:28:28.609Z,76.22
2019-05-09T03:31:03.088Z,76.43
2019-05-09T03:33:36.926Z,76.36
2019-05-09T03:36:09.282Z,76.42
2019-05-09T03:38:41.659Z,76.27
2019-05-09T03:41:14.038Z,76.19
2019-05-09T03:43:48.249Z,76.17
2019-05-09T03:46:21.756Z,76.63
2019-05-09T03:49:01.687Z,76.89
2019-05-09T03:51:34.075Z,76.94
2019-05-09T03:54:08.074Z,77.04
2019-05-09T03:56:42.103Z,77.15
2019-05-09T03:59:14.356Z,77.27
2019-05-09T04:01:50.154Z,77.23
2019-05-09T04:04:20.659Z,76.92
2019-05-09T04:06:53.134Z,76.89
2019-05-09T04:09:27.349Z,76.87
2019-05-09T04:12:00.261Z,77.01
2019-05-09T04:14:34.032Z,77.03
2019-05-09T04:17:07.858Z,77.14
2019-05-09T04:19:40.507Z,77.37
2019-05-09T04:22:12.907Z,77.38
2019-05-09T04:24:47.284Z,77.05
2019-05-09T04:27:20.832Z,76.77
2019-05-09T04:29:52.985Z,77.14
2019-05-09T04:32:27.356Z,77.35
2019-05-09T04:34:59.592Z,77.48
2019-05-09T04:37:31.970Z,77.53
2019-05-09T04:40:05.230Z,77.26
2019-05-09T04:42:43.122Z,77.19
2019-05-09T04:45:21.683Z,77.22
2019-05-09T04:47:54.054Z,77.38
2019-05-09T04:50:27.964Z,77.28
2019-05-09T04:53:00.237Z,77.43
2019-05-09T04:55:34.253Z,77.18
2019-05-09T04:58:09.089Z,77.36
2019-05-09T05:00:42.170Z,77.26
2019-05-09T05:03:14.520Z,77.61
2019-05-09T05:05:48.205Z,77.54
2019-05-09T05:08:20.481Z,77.43
2019-05-09T05:10:52.772Z,77.66
2019-05-09T05:13:27.341Z,77.54
2019-05-09T05:15:58.855Z,77.59
2019-05-09T05:18:31.313Z,77.45
2019-05-09T05:21:03.689Z,77.59
2019-05-09T05:23:38.140Z,77.50
2019-05-09T05:26:10.402Z,77.44
2019-05-09T05:28:42.877Z,77.37
2019-05-09T05:31:17.446Z,77.37
2019-05-09T05:34:03.078Z,77.23
2019-05-09T05:36:38.368Z,77.09
2019-05-09T05:39:10.588Z,76.92
2019-05-09T05:41:42.865Z,76.97
2019-05-09T05:44:17.630Z,77.12
2019-05-09T05:47:07.760Z,77.06
2019-05-09T05:49:40.131Z,77.14
2019-05-09T05:52:13.959Z,76.87
2019-05-09T05:54:47.719Z,76.87
2019-05-09T05:57:19.919Z,76.72
2019-05-09T05:59:52.295Z,76.72
2019-05-09T06:02:24.769Z,76.68
2019-05-09T06:04:57.932Z,76.80
2019-05-09T06:07:30.356Z,76.64
2019-05-09T06:10:02.815Z,76.42
2019-05-09T06:12:35.189Z,76.42
2019-05-09T06:15:08.792Z,76.58
2019-05-09T06:17:40.979Z,76.53
2019-05-09T06:20:13.341Z,76.46
2019-05-09T06:22:47.709Z,76.39
2019-05-09T06:25:21.165Z,76.50
2019-05-09T06:27:53.548Z,76.77
2019-05-09T06:30:30.016Z,76.48
2019-05-09T06:33:04.982Z,76.56
2019-05-09T06:35:37.890Z,76.81
2019-05-09T06:38:10.018Z,76.91
2019-05-09T06:40:42.501Z,76.71
2019-05-09T06:43:18.916Z,76.71
2019-05-09T06:46:08.223Z,76.46
2019-05-09T06:48:41.703Z,76.50
2019-05-09T06:51:13.888Z,76.56
2019-05-09T06:53:46.141Z,76.28
2019-05-09T06:56:18.516Z,76.11
2019-05-09T06:58:50.807Z,76.45
2019-05-09T07:01:33.617Z,76.28
2019-05-09T07:04:13.260Z,76.59
2019-05-09T07:06:48.256Z,76.27
2019-05-09T07:09:23.536Z,76.31
2019-05-09T07:11:58.495Z,76.06
2019-05-09T07:14:41.357Z,75.97
2019-05-09T07:17:10.263Z,76.04
2019-05-09T07:19:43.944Z,75.90
2019-05-09T07:22:34.368Z,76.01
2019-05-09T07:25:11.049Z,75.98
2019-05-09T07:27:48.381Z,75.84
2019-05-09T07:30:25.308Z,75.93
2019-05-09T07:33:15.499Z,75.46
2019-05-09T07:35:47.753Z,75.39
2019-05-09T07:38:30.783Z,75.45
2019-05-09T07:41:03.060Z,75.32
2019-05-09T07:43:35.511Z,74.65
2019-05-09T07:46:12.307Z,74.83
2019-05-09T07:48:48.355Z,75.36
2019-05-09T07:51:20.431Z,75.40
2019-05-09T07:53:52.585Z,75.03
2019-05-09T07:56:24.860Z,75.16
2019-05-09T07:58:58.504Z,75.27
2019-05-09T08:01:30.862Z,74.97
2019-05-09T08:04:03.944Z,75.00
2019-05-09T08:06:37.982Z,75.37
2019-05-09T08:09:10.333Z,75.37
2019-05-09T08:11:42.808Z,75.37
2019-05-09T08:14:17.454Z,75.22
2019-05-09T08:16:48.993Z,74.84
2019-05-09T08:19:21.281Z,74.78
2019-05-09T08:21:53.539Z,74.71
2019-05-09T08:24:27.753Z,74.75
2019-05-09T08:26:59.822Z,74.70
2019-05-09T08:29:32.298Z,74.62
2019-05-09T08:32:04.571Z,74.08
2019-05-09T08:34:37.763Z,74.12
2019-05-09T08:37:12.565Z,74.36
2019-05-09T08:39:44.350Z,73.93
2019-05-09T08:55:22.029Z,73.37
2019-05-09T08:57:54.721Z,72.58
2019-05-09T09:00:28.196Z,72.02
2019-05-09T09:03:00.501Z,71.77
2019-05-09T09:05:33.897Z,71.78
2019-05-09T09:08:08.388Z,71.95
2019-05-09T09:10:39.973Z,71.75
2019-05-09T09:13:12.249Z,71.61
2019-05-09T09:16:05.591Z,71.77
2019-05-09T09:18:18.258Z,71.24
2019-05-09T09:20:50.379Z,71.46
2019-05-09T09:23:22.672Z,71.66
2019-05-09T09:25:55.900Z,71.61
2019-05-09T09:28:28.853Z,71.43
2019-05-09T09:31:01.230Z,70.85
2019-05-09T09:33:33.599Z,70.93
2019-05-09T09:36:08.523Z,71.33
2019-05-09T09:38:39.683Z,71.58
2019-05-09T09:41:12.159Z,71.67
2019-05-09T09:43:44.634Z,71.72
2019-05-09T09:46:18.265Z,71.92
2019-05-09T10:06:13.702Z,71.13
2019-05-09T10:08:48.836Z,71.00
2019-05-09T10:11:19.969Z,70.90
2019-05-09T10:13:52.357Z,71.76
2019-05-09T10:16:30.034Z,71.91
2019-05-09T10:19:02.112Z,71.81
2019-05-09T10:21:39.209Z,71.91
2019-05-09T10:24:11.479Z,72.11
2019-05-09T10:27:01.647Z,72.22
2019-05-09T10:29:34.323Z,72.20
2019-05-09T10:32:10.708Z,72.10
2019-05-09T10:34:43.086Z,72.19
2019-05-09T10:37:15.447Z,71.93
2019-05-09T10:39:48.978Z,72.01
2019-05-09T10:42:32.079Z,72.16
2019-05-09T10:45:25.539Z,72.10
2019-05-09T10:47:58.130Z,71.73
2019-05-09T10:50:33.750Z,71.94
2019-05-09T10:53:07.825Z,71.96
2019-05-09T10:55:38.932Z,71.98
2019-05-09T10:58:11.502Z,72.18
2019-05-09T11:00:43.862Z,72.23
2019-05-09T11:03:18.063Z,72.29
2019-05-09T11:05:50.148Z,72.26
2019-05-09T11:08:22.726Z,72.35
2019-05-09T11:10:58.024Z,72.67
2019-05-09T11:13:30.154Z,72.41
2019-05-09T11:16:02.661Z,72.55
2019-05-09T11:18:35.007Z,72.80
2019-05-09T11:21:08.361Z,72.81
2019-05-09T11:23:40.884Z,73.28
2019-05-09T11:26:13.463Z,73.22
2019-05-09T11:28:46.023Z,72.78
2019-05-09T11:31:19.045Z,72.56
2019-05-09T11:33:52.428Z,72.67
2019-05-09T11:36:25.007Z,72.78
2019-05-09T11:39:00.722Z,73.04
2019-05-09T11:41:32.006Z,72.97
2019-05-09T11:44:04.577Z,72.95
2019-05-09T11:46:38.169Z,73.05
2019-05-09T11:49:10.773Z,72.79
2019-05-09T11:51:43.145Z,72.71
2019-05-09T11:54:17.257Z,72.66
2019-05-09T11:56:49.942Z,72.71
2019-05-09T11:59:22.297Z,72.98
2019-05-09T12:01:54.895Z,73.41
2019-05-09T12:04:28.136Z,73.76
2019-05-09T12:07:00.660Z,74.03
2019-05-09T12:09:33.249Z,74.28
2019-05-09T12:12:05.625Z,74.32
2019-05-09T12:14:38.241Z,74.05
2019-05-09T12:17:10.587Z,74.47
2019-05-09T12:19:43.161Z,74.46
2019-05-09T12:22:15.522Z,74.22
2019-05-09T12:24:48.635Z,74.24
2019-05-09T12:27:20.879Z,74.30
2019-05-09T12:29:53.274Z,74.42
2019-05-09T12:32:28.286Z,75.06
2019-05-09T12:35:00.157Z,74.82
2019-05-09T12:37:32.649Z,74.93
2019-05-09T12:40:07.696Z,74.88
2019-05-09T12:42:39.881Z,74.87
2019-05-09T12:45:12.217Z,74.84
2019-05-09T12:47:44.798Z,75.12
2019-05-09T12:50:18.728Z,75.28
2019-05-09T12:52:51.095Z,75.09
2019-05-09T12:55:23.452Z,75.00
2019-05-09T12:57:55.843Z,75.38
2019-05-09T13:00:28.500Z,75.54
2019-05-09T13:03:01.006Z,75.61
2019-05-09T13:05:33.358Z,75.61
2019-05-09T13:08:05.729Z,75.86
2019-05-09T13:10:38.128Z,75.90
2019-05-09T13:13:10.507Z,75.84
2019-05-09T13:16:00.665Z,76.21
2019-05-09T13:18:51.117Z,76.10
2019-05-09T13:21:23.758Z,76.20
2019-05-09T13:23:58.608Z,76.15
2019-05-09T13:26:30.340Z,76.22
2019-05-09T13:29:02.925Z,76.07
2019-05-09T13:31:37.993Z,75.98
2019-05-09T13:34:09.418Z,75.88
2019-05-09T13:36:41.669Z,75.96
2019-05-09T13:39:14.145Z,75.78
2019-05-09T13:41:47.606Z,75.88
2019-05-09T13:44:19.932Z,75.59
2019-05-09T13:46:52.392Z,75.63
2019-05-09T13:49:24.768Z,75.66
2019-05-09T13:52:01.280Z,75.85
2019-05-09T13:54:31.275Z,75.68
2019-05-09T13:57:03.752Z,75.52
2019-05-09T13:59:37.457Z,75.46
2019-05-09T14:02:09.757Z,75.37
2019-05-09T14:04:42.134Z,75.49
2019-05-09T14:07:14.388Z,75.46
2019-05-09T14:09:48.418Z,75.50
2019-05-09T14:12:20.791Z,75.47
2019-05-09T14:14:53.206Z,75.50
2019-05-09T14:17:45.250Z,75.43
2019-05-09T14:19:59.308Z,75.48
2019-05-09T14:22:31.608Z,75.47
2019-05-09T14:25:07.173Z,75.52
2019-05-09T14:27:38.816Z,75.55
2019-05-09T14:30:11.306Z,75.22
2019-05-09T14:32:43.475Z,74.85
2019-05-09T14:35:17.977Z,74.43
2019-05-09T14:37:49.761Z,74.60
2019-05-09T14:40:22.236Z,74.68
2019-05-09T14:42:54.723Z,74.71
2019-05-09T14:45:28.036Z,74.74
2019-05-09T14:48:00.498Z,74.17
2019-05-09T14:50:32.657Z,74.18
2019-05-09T14:53:04.929Z,74.42
2019-05-09T14:55:38.792Z,74.39
2019-05-09T14:58:11.215Z,74.56
2019-05-09T15:00:44.154Z,74.55
2019-05-09T15:03:18.813Z,74.64
2019-05-09T15:05:50.387Z,74.59
2019-05-09T15:08:22.848Z,75.01
2019-05-09T15:10:55.239Z,75.10
2019-05-09T15:13:28.638Z,74.95
2019-05-09T15:16:01.012Z,75.13
2019-05-09T15:18:33.290Z,75.14
2019-05-09T15:21:07.860Z,75.25
2019-05-09T15:23:39.342Z,75.25
2019-05-09T15:26:11.534Z,75.07
2019-05-09T15:28:44.013Z,75.18
2019-05-09T15:31:18.284Z,75.04
2019-05-09T15:33:50.181Z,74.89
2019-05-09T15:36:22.656Z,74.74
2019-05-09T15:38:55.139Z,74.75
2019-05-09T15:41:27.827Z,74.69
2019-05-09T15:44:00.104Z,74.78
2019-05-09T15:46:33.997Z,74.72
2019-05-09T15:49:07.695Z,74.65
2019-05-09T15:51:39.991Z,74.62
2019-05-09T15:54:12.266Z,74.48
2019-05-09T15:56:44.591Z,74.68
2019-05-09T15:59:18.421Z,74.84
2019-05-09T16:01:50.707Z,74.96
2019-05-09T16:04:23.195Z,74.94
2019-05-09T16:06:56.394Z,75.02
2019-05-09T16:09:28.854Z,74.74
2019-05-09T16:12:01.353Z,75.06
2019-05-09T16:14:33.807Z,74.41
2019-05-09T16:17:07.831Z,74.37
2019-05-09T16:19:39.908Z,74.12
2019-05-09T16:22:12.276Z,74.33
2019-05-09T16:24:44.633Z,73.87
2019-05-09T16:27:16.909Z,74.20
2019-05-09T16:29:49.093Z,74.38
2019-05-09T16:32:21.573Z,74.45
2019-05-09T16:34:54.034Z,74.75
2019-05-09T16:37:28.368Z,74.71
2019-05-09T16:40:00.131Z,74.78
2019-05-09T16:42:32.606Z,75.15
2019-05-09T16:45:08.068Z,75.03
2019-05-09T16:47:39.418Z,75.08
2019-05-09T16:50:12.180Z,74.74
2019-05-09T16:52:44.447Z,74.50
2019-05-09T16:55:18.375Z,74.07
2019-05-09T16:57:50.522Z,72.71
2019-05-09T17:00:40.726Z,71.87
2019-05-09T17:03:12.996Z,72.17
2019-05-09T17:05:45.273Z,72.08
2019-05-09T17:08:18.876Z,72.62
2019-05-09T17:10:51.142Z,72.82
2019-05-09T17:13:23.622Z,73.19
2019-05-09T17:15:56.084Z,73.50
2019-05-09T17:18:28.583Z,73.69
2019-05-09T17:21:18.480Z,73.89
2019-05-09T17:23:47.672Z,73.99
2019-05-09T17:26:20.026Z,74.24
2019-05-09T17:28:52.407Z,74.18
2019-05-09T17:31:27.393Z,74.37
2019-05-09T17:33:58.695Z,74.64
2019-05-09T17:36:31.878Z,74.85
2019-05-09T17:39:07.760Z,74.91
2019-05-09T17:41:39.904Z,74.99
2019-05-09T17:44:12.484Z,74.84
2019-05-09T17:46:44.843Z,74.84
2019-05-09T17:49:17.555Z,74.74
2019-05-09T17:51:49.813Z,74.65
2019-05-09T17:54:22.275Z,74.63
2019-05-09T17:56:54.664Z,74.59
2019-05-09T17:59:29.285Z,74.31
2019-05-09T18:02:00.731Z,74.22
2019-05-09T18:04:33.206Z,74.21
2019-05-09T18:07:08.529Z,74.12
2019-05-09T18:09:39.799Z,74.08
2019-05-09T18:12:11.969Z,74.09
2019-05-09T18:14:44.359Z,74.01
2019-05-09T18:17:17.983Z,73.93
2019-05-09T18:19:50.220Z,73.92
2019-05-09T18:22:22.593Z,73.68
2019-05-09T18:24:54.868Z,73.64
2019-05-09T18:27:27.490Z,73.62
2019-05-09T18:29:59.837Z,73.61
2019-05-09T18:32:50.329Z,73.55
2019-05-09T18:35:24.233Z,73.63
2019-05-09T18:37:58.862Z,73.48
2019-05-09T18:40:31.238Z,73.60
2019-05-09T18:43:03.900Z,73.70
2019-05-09T18:45:37.602Z,73.63
2019-05-09T18:48:09.984Z,73.66
2019-05-09T18:50:42.371Z,73.78
2019-05-09T18:53:14.653Z,73.74
2019-05-09T18:55:47.125Z,73.88
2019-05-09T18:58:19.702Z,74.04
2019-05-09T19:00:52.281Z,73.98
2019-05-09T19:03:24.435Z,73.99
2019-05-09T19:05:57.962Z,74.07
2019-05-09T19:08:30.437Z,73.96
2019-05-09T19:11:02.898Z,73.90
2019-05-09T19:13:35.184Z,73.92
2019-05-09T19:16:09.008Z,73.90
2019-05-09T19:18:45.252Z,73.94
2019-05-09T19:21:19.164Z,74.00
2019-05-09T19:23:51.641Z,73.90
2019-05-09T19:26:31.280Z,73.98
2019-05-09T19:29:04.371Z,74.05
2019-05-09T19:31:36.778Z,73.94
2019-05-09T19:34:09.226Z,73.92
2019-05-09T19:36:41.704Z,73.94
2019-05-09T19:39:14.895Z,74.05
2019-05-09T19:41:48.073Z,74.04
2019-05-09T19:44:20.544Z,74.04
2019-05-09T19:46:52.840Z,74.09
2019-05-09T19:49:25.197Z,74.17
2019-05-09T19:51:57.712Z,74.08
2019-05-09T19:54:30.268Z,74.09
2019-05-09T19:57:02.541Z,74.13
2019-05-09T19:59:34.795Z,74.11
2019-05-09T20:02:07.091Z,74.01
2019-05-09T20:04:39.544Z,73.98
2019-05-09T20:07:12.100Z,73.91
2019-05-09T20:09:48.819Z,73.95
2019-05-09T20:12:22.609Z,74.05
2019-05-09T20:14:55.132Z,74.15
2019-05-09T20:17:27.565Z,74.20
2019-05-09T20:19:59.941Z,74.22
2019-05-09T20:22:33.462Z,74.29
2019-05-09T20:25:08.475Z,74.30
2019-05-09T20:27:40.747Z,74.53
2019-05-09T20:30:13.021Z,74.53
2019-05-09T20:32:45.513Z,74.58
2019-05-09T20:35:17.997Z,74.44
2019-05-09T20:37:50.577Z,74.62
2019-05-09T20:40:23.259Z,74.60
2019-05-09T20:42:55.917Z,74.62
2019-05-09T20:45:28.410Z,74.72
2019-05-09T20:48:01.094Z,74.82
2019-05-09T20:50:33.674Z,74.68
2019-05-09T20:53:09.481Z,74.74
2019-05-09T20:55:40.061Z,74.73
2019-05-09T20:58:12.440Z,74.98
2019-05-09T21:00:45.135Z,75.08
2019-05-09T21:03:17.598Z,74.94
2019-05-09T21:05:50.081Z,75.01
2019-05-09T21:08:22.652Z,75.07
2019-05-09T21:10:55.312Z,75.27
2019-05-09T21:13:28.018Z,75.25
2019-05-09T21:16:00.594Z,75.25
2019-05-09T21:18:33.053Z,75.12
2019-05-09T21:21:05.856Z,75.04
2019-05-09T21:23:38.316Z,74.98
2019-05-09T21:26:10.795Z,75.06
2019-05-09T21:28:43.375Z,75.12
2019-05-09T21:31:15.971Z,75.26
2019-05-09T21:33:48.446Z,75.26
2019-05-09T21:36:20.923Z,75.18
2019-05-09T21:38:53.403Z,75.17
2019-05-09T21:41:25.673Z,75.08
2019-05-09T21:43:57.928Z,75.10
2019-05-09T21:46:30.098Z,75.02
2019-05-09T21:49:02.594Z,74.98
2019-05-09T21:51:35.054Z,74.80
2019-05-09T21:54:07.451Z,74.77
2019-05-09T21:56:39.605Z,74.76
2019-05-09T21:59:12.116Z,74.41
2019-05-09T22:01:44.583Z,74.69
2019-05-09T22:04:16.948Z,74.47
2019-05-09T22:06:49.113Z,74.29
2019-05-09T22:09:21.402Z,74.29
2019-05-09T22:11:53.864Z,74.15
2019-05-09T22:14:26.226Z,74.12
2019-05-09T22:17:00.150Z,74.08
2019-05-09T22:19:32.429Z,74.12
2019-05-09T22:22:04.681Z,74.07
2019-05-09T22:24:37.174Z,73.98
2019-05-09T22:27:09.547Z,73.95
2019-05-09T22:29:41.921Z,73.96
2019-05-09T22:32:14.180Z,74.13
2019-05-09T22:34:46.452Z,74.07
2019-05-09T22:37:18.741Z,74.08
2019-05-09T22:39:51.208Z,74.02
2019-05-09T22:42:23.704Z,74.03
2019-05-09T22:44:56.175Z,73.99
2019-05-09T22:47:28.445Z,73.94
2019-05-09T22:50:00.823Z,73.78
2019-05-09T22:52:32.997Z,73.69
2019-05-09T22:55:05.875Z,73.75
2019-05-09T22:57:37.928Z,73.65
2019-05-09T23:00:11.548Z,73.65
2019-05-09T23:02:45.458Z,73.71
2019-05-09T23:05:17.614Z,73.64
2019-05-09T23:07:51.026Z,73.67
2019-05-09T23:10:23.572Z,73.68
2019-05-09T23:12:56.081Z,73.65
2019-05-09T23:15:28.342Z,73.71
2019-05-09T23:18:00.629Z,73.55
2019-05-09T23:20:43.643Z,73.47
2019-05-09T23:23:23.592Z,73.27
2019-05-09T23:25:56.071Z,73.32
2019-05-09T23:28:28.755Z,73.03
2019-05-09T23:31:02.765Z,73.05
2019-05-09T23:33:36.777Z,72.92
2019-05-09T23:36:09.057Z,72.97
2019-05-09T23:38:59.109Z,73.11
2019-05-09T23:41:32.423Z,73.08
2019-05-09T23:44:04.904Z,72.99
2019-05-09T23:46:37.157Z,73.12
2019-05-09T23:49:09.328Z,73.36
2019-05-09T23:51:51.033Z,73.44
2019-05-09T23:54:46.619Z,73.56
2019-05-09T23:57:33.420Z,73.52
